Time,TemperatureF,DewpointF,PressureIn,WindDirection,WindDirectionDegrees,WindSpeedMPH,WindSpeedGustMPH,Humidity,HourlyPrecipIn,Conditions,Clouds,dailyrainin,SolarRadiationWatts/m^2,SoftwareType,DateUTC
2013-08-07 00:01:00,62.0,61.0,-100.00,ESE,116,3.0,4.0,98,0.00,,,0.00,0.000000,,2013-08-07 04:01:00,
2013-08-07 00:11:00,62.0,61.0,-100.00,ESE,116,3.0,4.0,98,0.00,,,0.00,0.000000,,2013-08-07 04:11:00,
2013-08-07 00:43:00,62.0,62.0,-100.00,SE,138,2.0,4.0,99,0.00,,,0.00,0.000000,,2013-08-07 04:43:00,
2013-08-07 00:52:00,62.0,62.0,-100.00,SE,138,2.0,4.0,99,0.00,,,0.00,0.000000,,2013-08-07 04:52:00,
2013-08-07 01:02:00,62.0,62.0,-100.00,SE,138,2.0,4.0,99,0.00,,,0.00,0.000000,,2013-08-07 05:02:00,
2013-08-07 01:11:00,62.0,62.0,-100.00,SE,138,2.0,4.0,99,0.00,,,0.00,0.000000,,2013-08-07 05:11:00,
2013-08-07 01:43:00,61.0,61.0,-100.00,SSE,155,3.0,5.0,99,0.00,,,0.00,0.000000,,2013-08-07 05:43:00,
2013-08-07 01:52:00,61.0,61.0,-100.00,SSE,155,3.0,5.0,99,0.00,,,0.00,0.000000,,2013-08-07 05:52:00,
2013-08-07 02:02:00,61.0,61.0,-100.00,SSE,155,3.0,5.0,99,0.00,,,0.00,0.000000,,2013-08-07 06:02:00,
2013-08-07 02:11:00,61.0,61.0,-100.00,SSE,155,3.0,5.0,99,0.00,,,0.00,0.000000,,2013-08-07 06:11:00,
2013-08-07 02:43:00,61.0,61.0,-100.00,ESE,123,3.0,7.0,99,0.00,,,0.00,0.000000,,2013-08-07 06:43:00,
2013-08-07 02:52:00,61.0,61.0,-100.00,ESE,123,3.0,7.0,99,0.00,,,0.00,0.000000,,2013-08-07 06:52:00,
2013-08-07 03:01:00,61.0,61.0,-100.00,ESE,123,3.0,7.0,99,0.00,,,0.00,0.000000,,2013-08-07 07:01:00,
2013-08-07 03:12:00,61.0,61.0,-100.00,ESE,123,3.0,7.0,99,0.00,,,0.00,0.000000,,2013-08-07 07:12:00,
2013-08-07 03:44:00,61.0,61.0,-100.00,NE,54,2.0,5.0,99,0.00,,,-99.99,0.000000,,2013-08-07 07:44:00,
2013-08-07 03:53:00,61.0,61.0,-100.00,NE,54,2.0,5.0,99,0.00,,,-99.99,0.000000,,2013-08-07 07:53:00,
2013-08-07 04:02:00,61.0,61.0,-100.00,NE,54,2.0,5.0,99,0.00,,,-99.99,0.000000,,2013-08-07 08:02:00,
2013-08-07 04:11:00,61.0,61.0,-100.00,NE,54,2.0,5.0,99,0.00,,,-99.99,0.000000,,2013-08-07 08:11:00,
2013-08-07 04:44:00,63.0,63.0,-100.00,ESE,117,2.0,5.0,100,0.00,,,0.00,0.000000,,2013-08-07 08:44:00,
2013-08-07 04:53:00,63.0,63.0,-100.00,ESE,117,2.0,5.0,100,0.00,,,0.00,0.000000,,2013-08-07 08:53:00,
2013-08-07 05:02:00,63.0,63.0,-100.00,ESE,117,2.0,5.0,100,0.00,,,0.00,0.000000,,2013-08-07 09:02:00,
2013-08-07 05:12:00,63.0,63.0,-100.00,ESE,117,2.0,5.0,100,0.00,,,0.00,0.000000,,2013-08-07 09:12:00,
2013-08-07 05:43:00,63.0,63.0,-100.00,WNW,282,3.0,9.0,99,0.03,,,0.03,0.000000,,2013-08-07 09:43:00,
2013-08-07 05:54:00,63.0,63.0,-100.00,WNW,282,3.0,9.0,99,0.03,,,0.03,0.000000,,2013-08-07 09:54:00,
2013-08-07 06:01:00,63.0,63.0,-100.00,WNW,282,3.0,9.0,99,0.03,,,0.03,0.000000,,2013-08-07 10:01:00,
2013-08-07 06:11:00,63.0,63.0,-100.00,WNW,282,3.0,9.0,99,0.03,,,0.03,0.000000,,2013-08-07 10:11:00,
2013-08-07 06:43:00,63.0,63.0,-100.00,ESE,122,4.0,10.0,99,0.54,,,0.57,0.000000,,2013-08-07 10:43:00,
2013-08-07 06:52:00,63.0,63.0,-100.00,ESE,122,4.0,10.0,99,0.54,,,0.57,0.000000,,2013-08-07 10:52:00,
2013-08-07 07:01:00,63.0,63.0,-100.00,ESE,122,4.0,10.0,99,0.54,,,0.57,0.000000,,2013-08-07 11:01:00,
2013-08-07 07:11:00,63.0,63.0,-100.00,ESE,122,4.0,10.0,99,0.54,,,0.57,0.000000,,2013-08-07 11:11:00,
2013-08-07 07:43:00,63.0,63.0,-100.00,ESE,112,2.0,8.0,99,0.10,,,0.67,2.000000,,2013-08-07 11:43:00,
2013-08-07 07:53:00,63.0,63.0,-100.00,ESE,112,2.0,8.0,99,0.10,,,0.67,2.000000,,2013-08-07 11:53:00,
2013-08-07 08:02:00,63.0,63.0,-100.00,ESE,112,2.0,8.0,99,0.10,,,0.67,2.000000,,2013-08-07 12:02:00,
2013-08-07 08:11:00,63.0,63.0,-100.00,ESE,112,2.0,8.0,99,0.10,,,0.67,2.000000,,2013-08-07 12:11:00,
2013-08-07 08:43:00,63.0,63.0,-100.00,NNW,345,0.0,4.0,100,0.11,,,0.78,15.000000,,2013-08-07 12:43:00,
2013-08-07 08:52:00,63.0,63.0,-100.00,NNW,345,0.0,4.0,100,0.11,,,0.78,15.000000,,2013-08-07 12:52:00,
2013-08-07 09:02:00,63.0,63.0,-100.00,NNW,345,0.0,4.0,100,0.11,,,0.78,15.000000,,2013-08-07 13:02:00,
2013-08-07 09:12:00,63.0,63.0,-100.00,NNW,345,0.0,4.0,100,0.11,,,0.78,15.000000,,2013-08-07 13:12:00,
2013-08-07 09:44:00,65.0,65.0,-100.00,North,349,2.0,5.0,99,0.02,,,0.80,119.000000,,2013-08-07 13:44:00,
2013-08-07 09:53:00,65.0,65.0,-100.00,North,349,2.0,5.0,99,0.02,,,0.80,119.000000,,2013-08-07 13:53:00,
2013-08-07 10:02:00,65.0,65.0,-100.00,North,349,2.0,5.0,99,0.02,,,0.80,119.000000,,2013-08-07 14:02:00,
2013-08-07 10:12:00,65.0,65.0,-100.00,North,349,2.0,5.0,99,0.02,,,0.80,119.000000,,2013-08-07 14:12:00,
2013-08-07 10:43:00,67.0,63.0,-100.00,West,274,3.0,6.0,88,0.00,,,0.80,271.000000,,2013-08-07 14:43:00,
2013-08-07 10:52:00,67.0,63.0,-100.00,West,274,3.0,6.0,88,0.00,,,0.80,271.000000,,2013-08-07 14:52:00,
2013-08-07 11:02:00,67.0,63.0,-100.00,West,274,3.0,6.0,88,0.00,,,0.80,271.000000,,2013-08-07 15:02:00,
2013-08-07 11:12:00,67.0,63.0,-100.00,West,274,3.0,6.0,88,0.00,,,0.80,271.000000,,2013-08-07 15:12:00,
2013-08-07 11:43:00,67.0,64.0,-100.00,West,276,4.0,7.0,91,0.00,,,0.80,234.000000,,2013-08-07 15:43:00,
2013-08-07 11:53:00,67.0,64.0,-100.00,West,276,4.0,7.0,91,0.00,,,0.80,234.000000,,2013-08-07 15:53:00,
2013-08-07 12:02:00,67.0,64.0,-100.00,West,276,4.0,7.0,91,0.00,,,0.80,234.000000,,2013-08-07 16:02:00,
2013-08-07 12:11:00,67.0,64.0,-100.00,West,276,4.0,7.0,91,0.00,,,0.80,234.000000,,2013-08-07 16:11:00,
2013-08-07 12:53:00,68.0,65.0,-100.00,WNW,295,8.0,13.0,89,0.02,,,0.82,346.000000,,2013-08-07 16:53:00,
2013-08-07 13:02:00,68.0,65.0,-100.00,WNW,295,8.0,13.0,89,0.02,,,0.82,346.000000,,2013-08-07 17:02:00,
2013-08-07 13:11:00,68.0,65.0,-100.00,WNW,295,8.0,13.0,89,0.02,,,0.82,346.000000,,2013-08-07 17:11:00,
2013-08-07 13:43:00,69.0,64.0,-100.00,NW,318,8.0,14.0,84,0.00,,,0.82,568.000000,,2013-08-07 17:43:00,
2013-08-07 13:52:00,69.0,64.0,-100.00,NW,318,8.0,14.0,84,0.00,,,0.82,568.000000,,2013-08-07 17:52:00,
2013-08-07 14:02:00,69.0,64.0,-100.00,NW,318,8.0,14.0,84,0.00,,,0.82,568.000000,,2013-08-07 18:02:00,
2013-08-07 14:11:00,69.0,64.0,-100.00,NW,318,8.0,14.0,84,0.00,,,0.82,568.000000,,2013-08-07 18:11:00,
2013-08-07 14:52:00,68.0,64.0,-100.00,NW,309,6.0,13.0,86,0.00,,,0.82,358.000000,,2013-08-07 18:52:00,
2013-08-07 15:01:00,68.0,64.0,-100.00,NW,309,6.0,13.0,86,0.00,,,0.82,358.000000,,2013-08-07 19:01:00,
2013-08-07 15:11:00,68.0,64.0,-100.00,NW,309,6.0,13.0,86,0.00,,,0.82,358.000000,,2013-08-07 19:11:00,
2013-08-07 15:44:00,71.0,61.0,-100.00,West,271,10.0,15.0,70,0.00,,,0.82,642.000000,,2013-08-07 19:44:00,
2013-08-07 15:53:00,71.0,61.0,-100.00,West,271,10.0,15.0,70,0.00,,,0.82,642.000000,,2013-08-07 19:53:00,
2013-08-07 16:02:00,71.0,61.0,-100.00,West,271,10.0,15.0,70,0.00,,,0.82,642.000000,,2013-08-07 20:02:00,
2013-08-07 16:11:00,71.0,61.0,-100.00,West,271,10.0,15.0,70,0.00,,,0.82,642.000000,,2013-08-07 20:11:00,
2013-08-07 16:43:00,70.0,62.0,-100.00,NW,312,7.0,14.0,77,0.00,,,0.82,450.000000,,2013-08-07 20:43:00,
2013-08-07 16:52:00,70.0,62.0,-100.00,NW,312,7.0,14.0,77,0.00,,,0.82,450.000000,,2013-08-07 20:52:00,
2013-08-07 17:01:00,70.0,62.0,-100.00,NW,312,7.0,14.0,77,0.00,,,0.82,450.000000,,2013-08-07 21:01:00,
2013-08-07 17:11:00,70.0,62.0,-100.00,NW,312,7.0,14.0,77,0.00,,,0.82,450.000000,,2013-08-07 21:11:00,
2013-08-07 17:43:00,71.0,61.0,-100.00,NW,305,9.0,16.0,70,0.00,,,0.82,378.000000,,2013-08-07 21:43:00,
2013-08-07 17:52:00,71.0,61.0,-100.00,NW,305,9.0,16.0,70,0.00,,,0.82,378.000000,,2013-08-07 21:52:00,
2013-08-07 18:01:00,71.0,61.0,-100.00,NW,305,9.0,16.0,70,0.00,,,0.82,378.000000,,2013-08-07 22:01:00,
2013-08-07 18:12:00,71.0,61.0,-100.00,NW,305,9.0,16.0,70,0.00,,,0.82,378.000000,,2013-08-07 22:12:00,
2013-08-07 18:43:00,69.0,60.0,-100.00,WNW,293,8.0,17.0,72,0.00,,,0.82,500.000000,,2013-08-07 22:43:00,
2013-08-07 18:52:00,69.0,60.0,-100.00,WNW,293,8.0,17.0,72,0.00,,,0.82,500.000000,,2013-08-07 22:52:00,
2013-08-07 19:01:00,69.0,60.0,-100.00,WNW,293,8.0,17.0,72,0.00,,,0.82,500.000000,,2013-08-07 23:01:00,
2013-08-07 19:11:00,69.0,60.0,-100.00,WNW,293,8.0,17.0,72,0.00,,,0.82,500.000000,,2013-08-07 23:11:00,
2013-08-07 19:43:00,65.0,58.0,-100.00,WNW,285,10.0,17.0,77,0.00,,,0.82,177.000000,,2013-08-07 23:43:00,
2013-08-07 19:52:00,65.0,58.0,-100.00,WNW,285,10.0,17.0,77,0.00,,,0.82,177.000000,,2013-08-07 23:52:00,
2013-08-07 20:01:00,65.0,58.0,-100.00,WNW,285,10.0,17.0,77,0.00,,,0.82,177.000000,,2013-08-08 00:01:00,
2013-08-07 20:11:00,65.0,58.0,-100.00,WNW,285,10.0,17.0,77,0.00,,,0.82,177.000000,,2013-08-08 00:11:00,
2013-08-07 20:43:00,62.0,56.0,-100.00,West,276,8.0,17.0,81,0.00,,,0.82,57.000000,,2013-08-08 00:43:00,
2013-08-07 20:53:00,62.0,56.0,-100.00,West,276,8.0,17.0,81,0.00,,,0.82,57.000000,,2013-08-08 00:53:00,
2013-08-07 21:02:00,62.0,56.0,-100.00,West,276,8.0,17.0,81,0.00,,,0.82,57.000000,,2013-08-08 01:02:00,
2013-08-07 21:11:00,62.0,56.0,-100.00,West,276,8.0,17.0,81,0.00,,,0.82,57.000000,,2013-08-08 01:11:00,
2013-08-07 21:43:00,60.0,56.0,-100.00,WNW,297,6.0,16.0,87,0.00,,,0.82,11.000000,,2013-08-08 01:43:00,
2013-08-07 21:52:00,60.0,56.0,-100.00,WNW,297,6.0,16.0,87,0.00,,,0.82,11.000000,,2013-08-08 01:52:00,
2013-08-07 22:02:00,60.0,56.0,-100.00,WNW,297,6.0,16.0,87,0.00,,,0.82,11.000000,,2013-08-08 02:02:00,
2013-08-07 22:11:00,60.0,56.0,-100.00,WNW,297,6.0,16.0,87,0.00,,,0.82,11.000000,,2013-08-08 02:11:00,
2013-08-07 22:43:00,55.0,53.0,-100.00,NW,307,4.0,9.0,92,0.00,,,0.82,0.000000,,2013-08-08 02:43:00,
2013-08-07 22:52:00,55.0,53.0,-100.00,NW,307,4.0,9.0,92,0.00,,,0.82,0.000000,,2013-08-08 02:52:00,
2013-08-07 23:02:00,55.0,53.0,-100.00,NW,307,4.0,9.0,92,0.00,,,0.82,0.000000,,2013-08-08 03:02:00,
2013-08-07 23:12:00,55.0,53.0,-100.00,NW,307,4.0,9.0,92,0.00,,,0.82,0.000000,,2013-08-08 03:12:00,
2013-08-07 23:43:00,55.0,54.0,-100.00,West,259,4.0,8.0,95,0.00,,,0.82,0.000000,,2013-08-08 03:43:00,
2013-08-07 23:52:00,55.0,54.0,-100.00,West,259,4.0,8.0,95,0.00,,,0.82,0.000000,,2013-08-08 03:52:00,